Time;durP1;ratioP1;P1;durP2;ratioP2;P2;SDS_P1;SDS_P2;PMS_P1;PMS_P2;Temp;Humidity;BMP_temperature;BMP_pressure;BME280_temperature;BME280_humidity;BME280_pressure;Samples;Min_cycle;Max_cycle;Signal;HPM_P1;HPM_P2
2024/02/24 00:00:55;;;;;;;2.05;0.38;;;;;;;2.96;52.65;99462.53;4980548;28;20060;-71
2024/02/24 00:03:21;;;;;;;2.58;0.50;;;;;;;2.89;52.73;99456.72;4994342;28;20112;-71
2024/02/24 00:05:46;;;;;;;2.85;0.30;;;;;;;2.89;52.97;99455.88;4996610;28;20121;-72
2024/02/24 00:08:12;;;;;;;0.95;0.20;;;;;;;2.83;52.62;99456.91;4989864;28;20037;-71
2024/02/24 00:10:38;;;;;;;1.55;0.45;;;;;;;2.77;52.74;99455.34;5001127;28;20063;-70
2024/02/24 00:13:04;;;;;;;1.10;0.20;;;;;;;2.71;52.65;99452.97;4995029;28;20117;-71
2024/02/24 00:15:30;;;;;;;5.28;0.20;;;;;;;2.54;52.76;99447.47;4992336;28;20421;-70
2024/02/24 00:17:55;;;;;;;0.65;0.30;;;;;;;2.45;52.97;99445.16;4968342;28;20041;-71
2024/02/24 00:20:21;;;;;;;1.90;0.50;;;;;;;2.37;52.80;99440.22;4992701;28;20041;-70
2024/02/24 00:22:46;;;;;;;0.40;0.20;;;;;;;2.26;53.54;99452.56;4995409;28;20123;-70
2024/02/24 00:25:12;;;;;;;3.53;0.25;;;;;;;2.26;54.41;99450.81;4986852;28;20055;-73
2024/02/24 00:27:37;;;;;;;1.15;0.20;;;;;;;2.29;53.90;99444.75;4981622;28;20022;-73
2024/02/24 00:30:03;;;;;;;2.25;0.68;;;;;;;2.30;53.85;99447.28;4996060;28;20037;-74
2024/02/24 00:32:29;;;;;;;1.52;0.43;;;;;;;2.19;54.10;99451.06;4990093;28;20038;-68
2024/02/24 00:34:54;;;;;;;1.92;0.30;;;;;;;2.14;54.23;99451.19;4993604;28;20033;-74
2024/02/24 00:37:19;;;;;;;2.70;0.30;;;;;;;2.16;53.44;99449.41;4976088;28;20100;-74
2024/02/24 00:39:45;;;;;;;1.67;0.30;;;;;;;2.03;54.17;99448.91;4981943;28;20143;-74
2024/02/24 00:42:10;;;;;;;1.00;0.40;;;;;;;2.03;53.93;99448.91;4993587;28;20048;-75
2024/02/24 00:44:36;;;;;;;1.75;0.50;;;;;;;1.98;54.38;99453.34;4965005;28;20041;-75
2024/02/24 00:47:01;;;;;;;1.35;0.30;;;;;;;1.92;54.24;99445.78;4997807;28;20078;-75
2024/02/24 00:49:29;;;;;;;0.75;0.30;;;;;;;1.87;54.14;99451.06;4991843;28;20535;-75
2024/02/24 00:51:55;;;;;;;0.70;0.22;;;;;;;1.82;54.44;99452.03;4981087;28;20032;-75
2024/02/24 00:54:20;;;;;;;1.65;0.25;;;;;;;1.76;54.86;99459.97;4991250;28;20041;-75
2024/02/24 00:56:46;;;;;;;3.75;0.73;;;;;;;1.78;54.80;99458.19;4981444;28;20029;-74
2024/02/24 00:59:11;;;;;;;1.40;0.60;;;;;;;1.77;54.73;99462.47;4992183;28;20573;-75
2024/02/24 01:01:37;;;;;;;3.38;0.82;;;;;;;1.73;54.91;99458.31;4964331;28;20713;-74
2024/02/24 01:04:02;;;;;;;2.92;0.50;;;;;;;1.76;55.31;99465.13;4994424;28;20116;-74
2024/02/24 01:06:28;;;;;;;2.35;0.93;;;;;;;1.81;55.24;99458.94;4969479;28;20069;-75
2024/02/24 01:08:53;;;;;;;3.80;0.65;;;;;;;1.81;55.07;99448.63;4948019;28;20096;-75
2024/02/24 01:11:19;;;;;;;2.40;0.40;;;;;;;1.77;55.01;99465.03;4986405;28;20243;-72
2024/02/24 01:13:44;;;;;;;2.20;0.50;;;;;;;1.79;55.46;99462.44;4997663;28;20041;-72
2024/02/24 01:16:10;;;;;;;2.60;0.93;;;;;;;1.81;55.51;99452.94;4996360;28;20842;-72
2024/02/24 01:18:35;;;;;;;4.78;0.40;;;;;;;1.85;55.13;99460.56;4958652;28;20037;-72
2024/02/24 01:21:04;;;;;;;2.55;1.05;;;;;;;1.87;54.94;99461.34;4977918;28;20517;-73
2024/02/24 01:23:30;;;;;;;3.03;0.63;;;;;;;1.81;54.98;99468.41;4973239;28;20513;-72
2024/02/24 01:25:55;;;;;;;2.65;0.80;;;;;;;1.88;55.18;99463.03;4992706;28;20024;-72
2024/02/24 01:28:21;;;;;;;4.65;0.60;;;;;;;1.94;55.22;99462.03;4992217;28;20605;-72
2024/02/24 01:30:46;;;;;;;2.88;0.57;;;;;;;1.97;54.74;99455.94;4986814;28;20033;-72
2024/02/24 01:33:12;;;;;;;4.07;0.40;;;;;;;2.05;54.82;99461.75;4985108;28;20791;-73
2024/02/24 01:35:37;;;;;;;7.45;0.88;;;;;;;2.08;54.82;99471.97;4978433;28;20255;-72
2024/02/24 01:38:04;;;;;;;1.48;0.40;;;;;;;2.04;54.59;99471.22;4993034;28;20141;-72
2024/02/24 01:40:30;;;;;;;2.42;0.38;;;;;;;2.08;54.53;99465.06;4977232;28;20041;-74
2024/02/24 01:42:56;;;;;;;1.48;0.40;;;;;;;1.94;54.81;99465.44;4995283;28;20500;-76
2024/02/24 01:45:22;;;;;;;2.20;0.50;;;;;;;2.08;54.15;99471.97;4995466;28;20044;-73
2024/02/24 01:47:50;;;;;;;3.25;0.35;;;;;;;1.95;54.25;99476.59;4996464;28;20029;-72
2024/02/24 01:50:15;;;;;;;2.72;0.45;;;;;;;2.05;54.01;99472.06;4991202;28;21358;-72
2024/02/24 01:52:45;;;;;;;0.75;0.28;;;;;;;2.08;54.35;99477.13;4960814;28;20025;-70
2024/02/24 01:55:11;;;;;;;2.03;0.57;;;;;;;2.06;53.92;99476.31;4995361;28;20116;-70
2024/02/24 01:57:43;;;;;;;3.05;0.50;;;;;;;2.14;54.58;99475.22;4909008;28;20029;-70
2024/02/24 02:00:10;;;;;;;3.47;0.38;;;;;;;2.19;54.18;99477.69;4932113;28;20787;-70
2024/02/24 02:02:42;;;;;;;4.32;0.93;;;;;;;1.91;55.09;99480.16;4914579;28;20222;-70
2024/02/24 02:05:08;;;;;;;3.03;0.43;;;;;;;2.33;54.01;99479.84;4915942;28;20029;-71
2024/02/24 02:07:35;;;;;;;6.07;0.60;;;;;;;2.36;53.53;99479.78;4910750;28;20847;-73
2024/02/24 02:10:01;;;;;;;2.47;0.60;;;;;;;2.31;53.70;99479.94;4984718;28;20033;-74
2024/02/24 02:12:27;;;;;;;3.28;0.52;;;;;;;2.24;53.68;99473.25;4965418;28;20099;-75
2024/02/24 02:14:53;;;;;;;3.90;0.95;;;;;;;2.26;53.87;99480.94;4996735;28;20037;-75
2024/02/24 02:17:20;;;;;;;0.90;0.32;;;;;;;2.26;53.47;99486.91;4973581;28;20033;-74
2024/02/24 02:19:45;;;;;;;1.83;0.50;;;;;;;2.17;53.64;99484.59;4980534;28;20041;-74
2024/02/24 02:22:14;;;;;;;2.03;0.63;;;;;;;2.03;54.31;99484.97;4996649;28;20044;-75
2024/02/24 02:24:40;;;;;;;0.75;0.30;;;;;;;2.06;54.16;99489.19;4991487;28;20119;-75
2024/02/24 02:27:06;;;;;;;2.53;0.50;;;;;;;2.09;54.28;99499.44;4977768;28;20505;-68
2024/02/24 02:29:33;;;;;;;2.15;0.40;;;;;;;2.20;54.27;99500.00;4955629;28;20273;-71
2024/02/24 02:32:00;;;;;;;1.52;0.50;;;;;;;2.20;54.19;99507.75;4959576;28;20128;-71
2024/02/24 02:34:25;;;;;;;7.15;0.45;;;;;;;2.32;53.84;99501.38;4969529;28;20531;-70
2024/02/24 02:36:51;;;;;;;2.08;0.47;;;;;;;2.32;53.99;99499.66;4994907;28;20037;-72
2024/02/24 02:39:16;;;;;;;6.85;0.60;;;;;;;2.29;53.86;99498.91;4957613;28;20053;-71
2024/02/24 02:41:42;;;;;;;1.23;0.40;;;;;;;2.19;53.49;99500.88;4954115;28;20061;-70
2024/02/24 02:44:08;;;;;;;1.80;0.50;;;;;;;2.09;54.03;99497.72;4992659;28;20038;-71
2024/02/24 02:46:33;;;;;;;6.78;1.45;;;;;;;2.01;54.06;99501.38;4992706;28;20156;-70
2024/02/24 02:48:59;;;;;;;1.25;0.20;;;;;;;1.91;53.47;99495.63;5001617;28;20101;-72
2024/02/24 02:51:24;;;;;;;4.75;0.93;;;;;;;1.79;53.68;99496.78;4988550;28;20041;-72
2024/02/24 02:53:50;;;;;;;4.35;0.43;;;;;;;1.65;54.23;99506.59;4984460;28;20056;-70
2024/02/24 02:56:20;;;;;;;2.38;0.60;;;;;;;1.51;54.67;99496.63;4997801;28;20101;-73
2024/02/24 02:58:48;;;;;;;2.40;0.40;;;;;;;1.44;54.95;99490.78;4983202;28;20131;-74
2024/02/24 03:01:15;;;;;;;1.77;0.40;;;;;;;1.39;54.57;99508.03;4998695;28;20052;-75
2024/02/24 03:03:40;;;;;;;3.13;0.70;;;;;;;1.31;54.75;99500.50;4996576;28;21320;-76
2024/02/24 03:06:06;;;;;;;3.10;0.60;;;;;;;1.26;55.43;99499.78;4998943;28;20164;-76
2024/02/24 03:08:33;;;;;;;3.97;0.65;;;;;;;1.20;55.17;99501.63;4993061;28;20045;-75
2024/02/24 03:11:00;;;;;;;5.15;1.15;;;;;;;1.20;55.39;99501.63;5001305;28;20045;-74
2024/02/24 03:13:26;;;;;;;3.22;0.40;;;;;;;1.21;55.43;99509.31;4991035;28;20785;-74
2024/02/24 03:15:51;;;;;;;4.00;0.75;;;;;;;1.20;55.78;99511.94;4983637;28;20034;-72
2024/02/24 03:18:16;;;;;;;4.80;0.63;;;;;;;1.16;56.02;99510.31;4955410;28;20144;-73
2024/02/24 03:20:42;;;;;;;1.40;0.52;;;;;;;1.16;55.56;99512.88;4918560;28;20642;-74
2024/02/24 03:23:08;;;;;;;2.60;0.75;;;;;;;1.15;55.37;99513.75;4919837;28;20789;-74
2024/02/24 03:25:33;;;;;;;1.98;0.55;;;;;;;1.09;55.32;99525.88;4930707;28;20511;-72
2024/02/24 03:27:59;;;;;;;3.85;0.60;;;;;;;1.04;55.80;99520.00;4937306;28;20382;-72
2024/02/24 03:30:24;;;;;;;2.15;0.38;;;;;;;1.06;55.87;99530.22;4940124;28;20053;-73
2024/02/24 03:32:51;;;;;;;4.80;0.73;;;;;;;1.06;55.53;99531.09;4982209;28;20041;-75
2024/02/24 03:35:16;;;;;;;3.17;0.60;;;;;;;1.01;55.57;99527.75;4998815;28;20088;-72
2024/02/24 03:37:42;;;;;;;2.72;0.45;;;;;;;1.06;55.73;99525.97;4992713;28;21532;-73
2024/02/24 03:40:08;;;;;;;1.38;0.43;;;;;;;0.99;55.87;99520.97;5001602;28;20530;-72
2024/02/24 03:42:34;;;;;;;3.70;0.70;;;;;;;1.02;56.08;99526.06;4976063;28;20028;-72
2024/02/24 03:45:01;;;;;;;6.38;0.88;;;;;;;1.04;56.32;99532.88;5001844;28;20403;-72
2024/02/24 03:47:26;;;;;;;1.48;0.40;;;;;;;1.16;56.12;99531.72;4976777;28;20040;-71
2024/02/24 03:49:51;;;;;;;8.57;0.73;;;;;;;1.23;56.00;99532.44;4968516;28;20045;-70
2024/02/24 03:52:17;;;;;;;5.05;0.70;;;;;;;1.31;55.93;99544.25;4997565;28;20033;-72
2024/02/24 03:54:42;;;;;;;1.88;0.90;;;;;;;1.40;55.88;99545.81;4973214;28;20379;-70
2024/02/24 03:57:08;;;;;;;3.78;0.70;;;;;;;1.39;55.99;99551.78;5000538;28;20546;-69
2024/02/24 03:59:33;;;;;;;1.48;0.55;;;;;;;1.54;55.80;99547.22;4968355;28;20053;-70
2024/02/24 04:01:58;;;;;;;2.25;0.40;;;;;;;1.71;55.03;99543.34;4989320;28;20033;-71
2024/02/24 04:04:24;;;;;;;2.53;0.80;;;;;;;1.75;54.83;99546.69;4993512;28;20673;-71
2024/02/24 04:06:50;;;;;;;3.72;0.63;;;;;;;1.73;54.77;99539.00;4981962;28;20115;-71
2024/02/24 04:09:15;;;;;;;3.00;0.43;;;;;;;1.73;54.61;99543.31;4968986;28;20049;-71
2024/02/24 04:11:41;;;;;;;2.58;0.90;;;;;;;1.73;54.72;99549.31;4941221;28;20419;-70
2024/02/24 04:14:06;;;;;;;4.13;0.60;;;;;;;1.79;54.77;99553.44;4977095;28;20091;-71
2024/02/24 04:16:32;;;;;;;1.90;0.68;;;;;;;1.82;54.83;99547.38;4989031;28;20067;-70
2024/02/24 04:18:57;;;;;;;3.33;1.25;;;;;;;1.84;54.35;99549.06;5001550;28;20045;-71
2024/02/24 04:21:22;;;;;;;5.75;0.60;;;;;;;1.85;54.43;99543.00;4979053;28;20112;-73
2024/02/24 04:23:48;;;;;;;4.95;1.10;;;;;;;1.80;54.23;99544.84;4958141;28;20045;-72
2024/02/24 04:26:14;;;;;;;1.92;0.50;;;;;;;1.46;55.27;99550.81;4997865;28;20507;-72
2024/02/24 04:28:41;;;;;;;1.65;0.85;;;;;;;1.64;54.81;99548.66;4973808;28;20041;-72
2024/02/24 04:31:06;;;;;;;3.38;1.48;;;;;;;1.60;54.94;99541.94;4966601;28;20114;-75
2024/02/24 04:33:32;;;;;;;3.05;0.82;;;;;;;1.57;54.71;99553.13;4963351;28;20045;-73
2024/02/24 04:35:57;;;;;;;3.60;0.70;;;;;;;1.46;55.01;99550.81;4990507;28;20121;-73
2024/02/24 04:38:23;;;;;;;1.05;0.50;;;;;;;1.42;55.50;99554.34;4980428;28;20033;-72
2024/02/24 04:40:48;;;;;;;1.98;0.60;;;;;;;1.45;55.22;99568.88;4972272;28;20038;-73
2024/02/24 04:43:13;;;;;;;3.08;0.68;;;;;;;1.35;55.35;99567.34;5000043;28;21098;-72
2024/02/24 04:45:39;;;;;;;3.13;1.02;;;;;;;1.37;55.31;99571.56;4964899;28;20061;-73
2024/02/24 04:48:05;;;;;;;6.05;1.25;;;;;;;1.32;55.07;99563.13;4973612;28;20069;-72
2024/02/24 04:50:30;;;;;;;3.33;0.98;;;;;;;1.28;55.49;99564.06;4990231;28;20090;-73
2024/02/24 04:52:56;;;;;;;2.25;0.52;;;;;;;1.26;55.28;99563.25;4997563;28;20397;-72
2024/02/24 04:55:21;;;;;;;3.80;0.82;;;;;;;1.23;55.29;99568.47;4997849;28;20052;-72
2024/02/24 04:57:47;;;;;;;3.13;0.50;;;;;;;1.21;55.48;99571.06;4972652;28;20557;-72
2024/02/24 05:00:12;;;;;;;2.35;1.33;;;;;;;1.27;55.41;99568.38;5000581;28;20053;-72
2024/02/24 05:02:38;;;;;;;3.17;1.30;;;;;;;1.23;55.38;99578.78;4986433;28;20046;-73
2024/02/24 05:05:04;;;;;;;2.03;1.13;;;;;;;1.23;55.39;99581.34;4980579;28;20112;-71
2024/02/24 05:07:29;;;;;;;3.30;0.88;;;;;;;1.21;55.17;99583.94;4969769;28;20538;-73
2024/02/24 05:09:56;;;;;;;5.38;1.27;;;;;;;1.30;55.48;99583.78;4956013;28;20041;-73
2024/02/24 05:12:21;;;;;;;2.47;1.20;;;;;;;1.28;55.38;99587.22;4976258;28;20120;-74
2024/02/24 05:14:50;;;;;;;4.95;1.15;;;;;;;1.31;55.35;99576.88;4985661;28;20403;-73
2024/02/24 05:17:15;;;;;;;3.33;1.23;;;;;;;1.27;55.45;99586.41;4996084;28;20034;-71
2024/02/24 05:19:41;;;;;;;2.90;0.80;;;;;;;1.34;55.49;99596.56;4978596;28;20392;-73
2024/02/24 05:22:06;;;;;;;2.30;1.15;;;;;;;1.43;55.31;99601.53;4996374;28;20550;-70
2024/02/24 05:24:32;;;;;;;4.03;1.23;;;;;;;1.45;55.11;99602.34;4963322;28;20080;-72
2024/02/24 05:26:58;;;;;;;2.83;1.48;;;;;;;1.44;55.28;99600.63;4965783;28;20523;-74
2024/02/24 05:29:24;;;;;;;1.70;0.85;;;;;;;1.42;55.64;99611.00;4975721;28;20049;-71
2024/02/24 05:31:49;;;;;;;5.95;1.50;;;;;;;1.40;55.45;99605.03;4948789;28;20091;-73
2024/02/24 05:34:15;;;;;;;2.70;1.15;;;;;;;1.42;55.68;99610.16;4952555;28;20061;-73
2024/02/24 05:36:40;;;;;;;2.33;1.17;;;;;;;1.32;55.72;99604.31;4935043;28;20307;-70
2024/02/24 05:39:06;;;;;;;2.70;1.25;;;;;;;1.50;55.45;99601.34;4920166;28;20065;-72
2024/02/24 05:41:33;;;;;;;1.77;0.80;;;;;;;1.56;55.41;99607.25;4912856;28;20101;-77
2024/02/24 05:43:58;;;;;;;1.83;1.20;;;;;;;1.60;55.13;99607.16;4907187;28;20571;-75
2024/02/24 05:46:24;;;;;;;3.85;1.17;;;;;;;1.46;55.64;99610.06;4978380;28;20059;-71
2024/02/24 05:48:49;;;;;;;1.83;1.13;;;;;;;1.58;55.36;99611.50;4967744;28;20904;-71
2024/02/24 05:51:16;;;;;;;3.65;1.20;;;;;;;1.64;55.09;99611.34;4999125;28;20509;-71
2024/02/24 05:53:42;;;;;;;2.80;1.05;;;;;;;1.60;55.13;99614.88;4986496;28;20086;-67
2024/02/24 05:56:08;;;;;;;2.25;1.00;;;;;;;1.60;55.26;99614.03;4998400;28;20369;-68
2024/02/24 05:58:33;;;;;;;4.55;0.85;;;;;;;1.61;55.10;99620.88;4989412;28;20045;-71
2024/02/24 06:01:02;;;;;;;3.13;1.40;;;;;;;1.55;54.91;99616.72;4980822;28;20630;-72
2024/02/24 06:03:28;;;;;;;3.55;1.30;;;;;;;1.52;55.00;99615.03;4967412;28;20057;-74
2024/02/24 06:05:54;;;;;;;4.05;1.63;;;;;;;1.51;55.30;99622.81;4967678;28;22610;-73
2024/02/24 06:08:19;;;;;;;3.50;1.13;;;;;;;1.41;55.11;99622.16;4994655;28;20052;-73
2024/02/24 06:10:44;;;;;;;2.70;1.73;;;;;;;1.37;55.29;99624.81;4967783;28;20068;-73
2024/02/24 06:13:10;;;;;;;2.65;1.08;;;;;;;1.38;55.71;99635.06;4994731;28;20497;-71
2024/02/24 06:15:36;;;;;;;2.20;0.82;;;;;;;1.32;55.35;99640.34;4989258;28;20499;-71
2024/02/24 06:18:01;;;;;;;3.30;1.75;;;;;;;1.29;55.48;99643.00;4978220;28;20493;-71
2024/02/24 06:20:26;;;;;;;2.13;1.60;;;;;;;1.31;55.78;99649.81;4998132;28;20056;-71
2024/02/24 06:22:52;;;;;;;4.63;1.58;;;;;;;1.34;55.56;99648.06;4984956;28;20951;-73
2024/02/24 06:25:18;;;;;;;4.70;1.88;;;;;;;1.29;55.78;99648.16;4998951;28;20123;-74
2024/02/24 06:27:44;;;;;;;2.88;1.75;;;;;;;1.31;55.92;99648.97;4985797;28;20033;-72
2024/02/24 06:30:09;;;;;;;3.28;1.67;;;;;;;1.29;56.21;99645.56;4997233;28;20116;-73
2024/02/24 06:32:36;;;;;;;5.10;1.38;;;;;;;1.30;56.16;99650.69;4988629;28;20064;-74
2024/02/24 06:35:02;;;;;;;4.43;2.00;;;;;;;1.26;56.04;99646.50;4997519;28;20037;-73
2024/02/24 06:37:27;;;;;;;5.47;1.60;;;;;;;1.26;55.74;99654.22;4999251;28;20037;-72
2024/02/24 06:39:53;;;;;;;2.60;1.52;;;;;;;1.27;55.88;99658.47;4985375;28;21365;-72
2024/02/24 06:42:18;;;;;;;3.95;1.45;;;;;;;1.26;55.90;99658.50;4998276;28;20045;-70
2024/02/24 06:44:44;;;;;;;4.05;1.33;;;;;;;1.24;56.35;99657.72;4984472;28;20317;-72
2024/02/24 06:47:09;;;;;;;5.00;1.60;;;;;;;1.32;56.24;99666.09;5000441;28;20141;-78
2024/02/24 06:49:34;;;;;;;3.25;1.85;;;;;;;1.34;56.24;99666.91;4996748;28;20088;-80
2024/02/24 06:52:01;;;;;;;3.50;1.75;;;;;;;1.40;56.01;99666.81;4955368;28;20123;-78
2024/02/24 06:54:26;;;;;;;5.95;1.83;;;;;;;1.46;55.97;99669.28;4952535;28;20491;-77
2024/02/24 06:56:52;;;;;;;7.45;1.98;;;;;;;1.57;56.10;99670.75;4932487;28;20043;-77
2024/02/24 06:59:17;;;;;;;6.57;2.08;;;;;;;1.58;55.78;99673.31;4937521;28;20257;-72
2024/02/24 07:01:43;;;;;;;10.50;2.15;;;;;;;1.68;56.02;99679.94;4918289;28;20049;-72
2024/02/24 07:04:09;;;;;;;5.53;1.80;;;;;;;1.80;56.01;99688.28;4939352;28;20255;-73
2024/02/24 07:06:34;;;;;;;4.38;1.88;;;;;;;1.89;55.56;99696.66;4994139;28;20149;-71
2024/02/24 07:09:00;;;;;;;4.90;1.88;;;;;;;1.92;55.37;99691.41;4966255;28;20052;-71
2024/02/24 07:11:25;;;;;;;5.88;2.30;;;;;;;1.98;55.20;99697.31;4990459;28;20029;-70
2024/02/24 07:13:51;;;;;;;5.68;2.25;;;;;;;2.10;55.46;99691.88;4984425;28;20107;-70
2024/02/24 07:16:18;;;;;;;6.80;1.95;;;;;;;2.23;55.44;99698.44;4993238;28;20449;-70
2024/02/24 07:18:45;;;;;;;4.72;3.13;;;;;;;2.35;54.83;99692.97;4983910;28;20041;-71
2024/02/24 07:21:11;;;;;;;7.22;2.28;;;;;;;2.49;55.03;99695.22;4994998;28;20037;-71
2024/02/24 07:23:36;;;;;;;3.40;1.50;;;;;;;2.62;54.44;99705.19;4963095;28;20755;-70
2024/02/24 07:26:03;;;;;;;3.67;1.55;;;;;;;2.61;54.31;99704.34;4947764;28;20041;-69
2024/02/24 07:28:30;;;;;;;3.42;2.05;;;;;;;2.71;54.50;99700.66;4977413;28;20054;-68
2024/02/24 07:30:55;;;;;;;5.90;2.03;;;;;;;2.82;54.11;99702.94;4986609;28;20065;-68
2024/02/24 07:33:21;;;;;;;2.65;1.27;;;;;;;2.44;54.35;99706.50;4954466;28;20049;-68
2024/02/24 07:35:47;;;;;;;5.32;2.42;;;;;;;2.47;54.21;99707.28;4965127;28;20778;-69
2024/02/24 07:38:13;;;;;;;3.53;1.55;;;;;;;2.64;54.10;99712.00;4974474;28;20061;-68
2024/02/24 07:40:39;;;;;;;6.10;2.95;;;;;;;2.79;53.86;99715.09;4997335;28;20044;-68
2024/02/24 07:43:05;;;;;;;9.07;2.40;;;;;;;2.90;53.66;99710.50;4969613;28;20057;-66
2024/02/24 07:45:31;;;;;;;4.28;2.20;;;;;;;2.98;53.60;99708.56;4980519;28;20041;-67
2024/02/24 07:47:56;;;;;;;3.55;1.52;;;;;;;3.13;53.32;99708.13;4981522;28;20163;-67
2024/02/24 07:50:22;;;;;;;3.80;1.67;;;;;;;3.09;53.19;99713.41;4994940;28;20045;-68
2024/02/24 07:52:48;;;;;;;4.47;1.88;;;;;;;3.33;53.14;99709.34;4982604;28;20033;-70
2024/02/24 07:55:14;;;;;;;3.92;1.65;;;;;;;3.42;52.71;99714.22;4990986;28;20034;-70
2024/02/24 07:57:39;;;;;;;2.97;1.92;;;;;;;3.39;52.13;99715.16;4979165;28;20087;-69
2024/02/24 08:00:06;;;;;;;8.27;1.92;;;;;;;3.39;52.86;99714.34;4971520;28;20721;-71
2024/02/24 08:02:32;;;;;;;3.20;1.65;;;;;;;3.39;52.53;99724.66;4973914;28;20033;-69
2024/02/24 08:04:59;;;;;;;3.15;1.88;;;;;;;3.47;52.40;99730.47;4982497;28;20112;-69
2024/02/24 08:07:24;;;;;;;2.03;1.40;;;;;;;3.55;52.32;99730.22;4990423;28;20494;-70
2024/02/24 08:09:50;;;;;;;3.90;1.48;;;;;;;3.57;52.25;99724.13;4983513;28;20057;-70
2024/02/24 08:12:16;;;;;;;3.53;1.55;;;;;;;3.58;52.55;99735.28;4981135;28;20032;-70
2024/02/24 08:14:41;;;;;;;8.32;2.25;;;;;;;3.58;52.24;99735.28;4967711;28;20076;-70
2024/02/24 08:17:07;;;;;;;4.35;2.15;;;;;;;3.55;52.32;99736.25;4961671;28;20567;-70
2024/02/24 08:19:34;;;;;;;6.15;1.80;;;;;;;3.64;52.20;99739.47;4976775;28;20049;-70
2024/02/24 08:22:05;;;;;;;2.97;1.42;;;;;;;3.58;52.13;99740.47;4941578;28;20485;-70
2024/02/24 08:24:32;;;;;;;2.90;1.13;;;;;;;3.50;52.53;99738.13;4929376;28;20234;-71
2024/02/24 08:26:57;;;;;;;1.90;1.02;;;;;;;3.51;52.18;99750.13;4918835;28;20033;-70
2024/02/24 08:29:23;;;;;;;2.38;1.05;;;;;;;3.58;52.19;99733.59;4912168;28;20045;-70
2024/02/24 08:31:50;;;;;;;4.80;1.30;;;;;;;3.40;52.62;99747.00;4921178;28;20771;-69
2024/02/24 08:34:16;;;;;;;5.40;1.55;;;;;;;3.74;52.52;99746.91;4930962;28;20041;-71
2024/02/24 08:36:42;;;;;;;2.97;1.38;;;;;;;3.79;51.94;99749.34;4983326;28;20035;-71
2024/02/24 08:39:07;;;;;;;4.20;1.88;;;;;;;3.73;52.11;99744.34;4968414;28;21625;-70
2024/02/24 08:41:35;;;;;;;5.95;1.40;;;;;;;3.21;53.57;99746.66;4982517;28;20064;-70
2024/02/24 08:44:04;;;;;;;4.75;1.42;;;;;;;3.86;52.25;99740.50;4966932;28;20041;-70
2024/02/24 08:46:29;;;;;;;2.47;1.60;;;;;;;3.71;51.56;99740.97;4993172;28;20029;-70
2024/02/24 08:48:56;;;;;;;2.95;0.90;;;;;;;3.95;51.63;99745.38;4987117;28;20128;-70
2024/02/24 08:51:22;;;;;;;3.28;1.42;;;;;;;4.05;51.73;99752.88;4963550;28;20476;-71
2024/02/24 08:53:48;;;;;;;2.20;1.17;;;;;;;4.05;51.46;99750.28;4962188;28;20550;-70
2024/02/24 08:56:21;;;;;;;4.47;1.40;;;;;;;4.27;51.49;99751.28;4970787;28;20060;-69
2024/02/24 08:58:47;;;;;;;6.97;1.92;;;;;;;4.29;51.78;99756.44;4993854;28;20100;-69
2024/02/24 09:01:18;;;;;;;4.88;1.27;;;;;;;4.30;51.77;99752.97;4964993;28;20033;-70
2024/02/24 09:03:44;;;;;;;6.50;1.52;;;;;;;4.69;51.12;99748.22;4950893;28;20136;-69
2024/02/24 09:06:09;;;;;;;3.00;1.60;;;;;;;4.73;51.23;99749.81;4981333;28;20847;-69
2024/02/24 09:08:37;;;;;;;3.70;1.67;;;;;;;5.32;49.08;99750.38;4980754;28;20053;-70
2024/02/24 09:11:03;;;;;;;4.20;1.20;;;;;;;5.24;48.85;99755.84;4983886;28;20041;-70
2024/02/24 09:13:28;;;;;;;3.55;1.58;;;;;;;4.45;49.98;99759.38;4978138;28;20045;-70
2024/02/24 09:15:54;;;;;;;3.33;1.60;;;;;;;4.64;49.95;99750.13;4987080;28;20033;-70
2024/02/24 09:18:19;;;;;;;5.55;1.27;;;;;;;4.05;51.42;99758.03;4992758;28;20049;-70
2024/02/24 09:20:45;;;;;;;4.80;1.15;;;;;;;4.50;50.53;99757.47;4996340;28;20029;-71
2024/02/24 09:23:11;;;;;;;5.03;2.58;;;;;;;4.49;50.23;99759.22;4984147;28;20148;-71
2024/02/24 09:25:36;;;;;;;4.55;1.67;;;;;;;4.62;50.01;99760.50;4982627;28;20025;-70
2024/02/24 09:28:02;;;;;;;5.07;1.35;;;;;;;5.99;49.20;99760.81;4985364;28;20033;-70
2024/02/24 09:30:27;;;;;;;1.48;0.98;;;;;;;7.12;46.21;99757.97;4996273;28;20435;-69
2024/02/24 09:32:54;;;;;;;2.53;1.48;;;;;;;7.25;44.42;99758.28;4989963;28;20598;-70
2024/02/24 09:35:25;;;;;;;3.85;1.40;;;;;;;7.47;43.61;99759.94;4956356;28;20025;-69
2024/02/24 09:37:50;;;;;;;3.75;1.10;;;;;;;6.90;44.16;99763.22;4989004;28;20046;-69
2024/02/24 09:40:16;;;;;;;3.47;1.27;;;;;;;5.71;46.36;99760.22;4988687;28;20080;-70
2024/02/24 09:42:42;;;;;;;6.10;1.67;;;;;;;6.80;46.35;99759.34;4982456;28;20352;-69
2024/02/24 09:45:12;;;;;;;5.22;2.70;;;;;;;7.27;45.32;99761.66;4974340;28;20137;-68
2024/02/24 09:47:41;;;;;;;4.47;1.45;;;;;;;5.63;47.66;99763.06;4990789;28;20055;-69
2024/02/24 09:50:07;;;;;;;6.53;1.80;;;;;;;6.38;46.34;99773.19;4973256;28;20029;-69
2024/02/24 09:52:32;;;;;;;2.20;1.48;;;;;;;6.26;46.73;99773.63;4927147;28;20061;-69
2024/02/24 09:54:58;;;;;;;2.25;1.27;;;;;;;6.89;44.34;99769.34;4935679;28;20539;-70
2024/02/24 09:57:30;;;;;;;3.60;1.83;;;;;;;7.65;45.07;99769.53;4925077;28;20030;-71
2024/02/24 09:59:56;;;;;;;4.82;1.55;;;;;;;6.92;45.51;99773.56;4906627;28;20792;-71
2024/02/24 10:02:22;;;;;;;3.33;1.92;;;;;;;7.05;46.11;99774.72;4930944;28;20254;-70
2024/02/24 10:04:50;;;;;;;4.25;1.30;;;;;;;6.73;46.39;99773.50;4985478;28;20034;-69
2024/02/24 10:07:17;;;;;;;3.42;1.77;;;;;;;7.13;45.04;99777.00;4967255;28;20035;-69
2024/02/24 10:09:42;;;;;;;4.60;2.20;;;;;;;7.30;44.46;99784.06;4988915;28;20041;-69
2024/02/24 10:12:08;;;;;;;2.75;1.55;;;;;;;6.57;45.27;99782.81;4983942;28;20052;-70
2024/02/24 10:14:34;;;;;;;3.17;1.67;;;;;;;7.02;45.32;99780.06;4992938;28;20117;-71
2024/02/24 10:17:00;;;;;;;3.40;2.13;;;;;;;6.55;46.61;99789.81;4987913;28;20056;-72
2024/02/24 10:19:32;;;;;;;4.10;2.05;;;;;;;5.03;49.38;99785.94;4969354;28;20045;-71
2024/02/24 10:22:04;;;;;;;3.28;2.42;;;;;;;5.61;47.63;99783.03;4975861;28;20037;-71
2024/02/24 10:24:30;;;;;;;3.20;2.42;;;;;;;5.54;49.01;99785.00;4951103;28;20046;-71
2024/02/24 10:26:56;;;;;;;2.55;2.33;;;;;;;4.53;51.12;99803.97;4974882;28;20765;-69
2024/02/24 10:29:30;;;;;;;4.35;2.35;;;;;;;5.02;50.58;99797.19;4962151;28;20251;-71
2024/02/24 10:31:59;;;;;;;5.75;1.98;;;;;;;5.62;48.77;99798.53;4993776;28;20040;-69
2024/02/24 10:34:26;;;;;;;3.95;1.92;;;;;;;5.59;48.28;99796.06;4979802;28;20037;-70
2024/02/24 10:36:51;;;;;;;3.53;1.92;;;;;;;5.41;48.92;99802.75;4990402;28;20108;-68
2024/02/24 10:39:18;;;;;;;3.85;2.25;;;;;;;5.75;48.33;99796.34;4959250;28;20744;-70
2024/02/24 10:41:47;;;;;;;2.88;2.13;;;;;;;5.29;49.77;99804.91;4989022;28;20037;-69
2024/02/24 10:44:13;;;;;;;4.45;3.33;;;;;;;5.18;50.18;99802.69;4979028;28;20503;-69
2024/02/24 10:46:42;;;;;;;3.45;2.78;;;;;;;4.88;50.72;99812.34;4977662;28;20029;-69
2024/02/24 10:49:11;;;;;;;3.80;2.83;;;;;;;4.82;50.81;99814.22;4960927;28;20222;-69
2024/02/24 10:51:36;;;;;;;5.38;3.22;;;;;;;4.83;50.61;99817.63;4980042;28;20586;-69
2024/02/24 10:54:37;;;;;;;3.10;2.70;;;;;;;5.08;50.23;99816.84;4955059;28;20124;-69
2024/02/24 10:57:05;;;;;;;3.90;3.17;;;;;;;5.11;50.13;99822.78;4963279;28;20056;-69
2024/02/24 10:59:31;;;;;;;4.65;2.97;;;;;;;5.12;50.53;99818.44;4974145;28;20041;-70
2024/02/24 11:02:02;;;;;;;4.53;3.70;;;;;;;5.35;49.80;99823.69;4993479;28;20049;-69
2024/02/24 11:04:29;;;;;;;4.17;3.77;;;;;;;5.59;49.38;99814.22;4983465;28;20055;-71
2024/02/24 11:06:55;;;;;;;4.20;3.70;;;;;;;4.28;51.39;99819.41;4997439;28;20037;-69
2024/02/24 11:09:33;;;;;;;6.22;3.97;;;;;;;4.71;50.96;99821.47;4984240;28;20050;-69
2024/02/24 11:12:07;;;;;;;6.05;3.70;;;;;;;5.53;48.81;99819.59;4998487;28;20041;-70
2024/02/24 11:14:39;;;;;;;6.15;3.20;;;;;;;5.09;50.26;99798.69;4996435;28;20312;-71
2024/02/24 11:17:05;;;;;;;3.63;2.78;;;;;;;6.25;48.70;99813.47;4996745;28;20506;-69
2024/02/24 11:19:44;;;;;;;4.28;3.83;;;;;;;6.57;47.76;99806.19;4971386;28;20045;-69
2024/02/24 11:22:27;;;;;;;6.70;3.78;;;;;;;6.08;47.37;99803.72;4992961;28;20129;-70
2024/02/24 11:25:20;;;;;;;3.53;2.67;;;;;;;7.04;46.08;99808.56;4995601;28;20061;-69
2024/02/24 11:27:55;;;;;;;3.25;2.95;;;;;;;6.32;47.86;99819.28;4992793;28;20053;-68
2024/02/24 11:30:36;;;;;;;3.15;2.47;;;;;;;6.53;46.61;99809.81;4954411;28;20045;-69
2024/02/24 11:33:21;;;;;;;3.73;2.93;;;;;;;6.24;47.90;99811.78;4980846;28;20593;-71
2024/02/24 11:35:49;;;;;;;3.17;2.78;;;;;;;5.71;48.12;99810.31;4996853;28;20657;-69
2024/02/24 11:38:16;;;;;;;7.25;3.17;;;;;;;6.27;47.91;99812.50;4939833;28;20643;-69